sensor_id;sensor_type;location;lat;lon;timestamp;pressure;altitude;pressure_sealevel;temperature;humidity
64853;BME280;56050;55.558;-4.644;2023-04-21T00:02:08;102625.59;;;9.74;47.08
64853;BME280;56050;55.558;-4.644;2023-04-21T00:04:34;102632.09;;;9.73;47.12
64853;BME280;56050;55.558;-4.644;2023-04-21T00:06:59;102633.53;;;9.71;47.16
64853;BME280;56050;55.558;-4.644;2023-04-21T00:09:28;102635.44;;;9.70;46.99
64853;BME280;56050;55.558;-4.644;2023-04-21T00:11:53;102627.72;;;9.69;47.07
64853;BME280;56050;55.558;-4.644;2023-04-21T00:14:19;102637.34;;;9.70;47.07
64853;BME280;56050;55.558;-4.644;2023-04-21T00:16:44;102623.88;;;9.70;47.16
64853;BME280;56050;55.558;-4.644;2023-04-21T00:19:10;102629.16;;;9.66;47.27
64853;BME280;56050;55.558;-4.644;2023-04-21T00:21:38;102630.63;;;9.64;47.17
64853;BME280;56050;55.558;-4.644;2023-04-21T00:24:04;102617.81;;;9.61;47.19
64853;BME280;56050;55.558;-4.644;2023-04-21T00:26:29;102611.66;;;9.60;47.25
64853;BME280;56050;55.558;-4.644;2023-04-21T00:28:55;102611.22;;;9.58;47.25
64853;BME280;56050;55.558;-4.644;2023-04-21T00:31:20;102604.47;;;9.52;47.33
64853;BME280;56050;55.558;-4.644;2023-04-21T00:33:46;102599.59;;;9.45;47.49
64853;BME280;56050;55.558;-4.644;2023-04-21T00:36:11;102599.38;;;9.38;47.71
64853;BME280;56050;55.558;-4.644;2023-04-21T00:38:37;102583.91;;;9.35;47.69
64853;BME280;56050;55.558;-4.644;2023-04-21T00:41:02;102585.34;;;9.33;47.74
64853;BME280;56050;55.558;-4.644;2023-04-21T00:43:28;102584.13;;;9.30;47.65
64853;BME280;56050;55.558;-4.644;2023-04-21T00:45:53;102589.66;;;9.25;47.87
64853;BME280;56050;55.558;-4.644;2023-04-21T00:48:18;102583.06;;;9.23;47.93
64853;BME280;56050;55.558;-4.644;2023-04-21T00:50:44;102582.16;;;9.19;47.95
64853;BME280;56050;55.558;-4.644;2023-04-21T00:53:10;102593.22;;;9.17;47.64
64853;BME280;56050;55.558;-4.644;2023-04-21T00:55:36;102595.16;;;9.17;48.01
64853;BME280;56050;55.558;-4.644;2023-04-21T00:58:02;102589.00;;;9.16;47.86
64853;BME280;56050;55.558;-4.644;2023-04-21T01:00:28;102591.69;;;9.16;47.70
64853;BME280;56050;55.558;-4.644;2023-04-21T01:02:54;102597.72;;;9.13;47.68
64853;BME280;56050;55.558;-4.644;2023-04-21T01:05:20;102598.38;;;9.10;47.75
64853;BME280;56050;55.558;-4.644;2023-04-21T01:07:45;102594.75;;;9.06;47.58
64853;BME280;56050;55.558;-4.644;2023-04-21T01:10:11;102592.41;;;9.05;47.63
64853;BME280;56050;55.558;-4.644;2023-04-21T01:12:46;102583.41;;;9.01;47.66
64853;BME280;56050;55.558;-4.644;2023-04-21T01:15:14;102592.47;;;8.96;47.64
64853;BME280;56050;55.558;-4.644;2023-04-21T01:17:40;102590.44;;;8.93;47.93
64853;BME280;56050;55.558;-4.644;2023-04-21T01:20:11;102583.50;;;8.92;47.88
64853;BME280;56050;55.558;-4.644;2023-04-21T01:22:38;102583.03;;;8.90;47.71
64853;BME280;56050;55.558;-4.644;2023-04-21T01:25:04;102573.06;;;8.91;47.74
64853;BME280;56050;55.558;-4.644;2023-04-21T01:27:30;102580.34;;;8.90;47.63
64853;BME280;56050;55.558;-4.644;2023-04-21T01:29:56;102589.84;;;8.88;47.78
64853;BME280;56050;55.558;-4.644;2023-04-21T01:32:24;102582.91;;;8.86;47.82
64853;BME280;56050;55.558;-4.644;2023-04-21T01:34:52;102573.59;;;8.84;47.83
64853;BME280;56050;55.558;-4.644;2023-04-21T01:37:21;102570.00;;;8.80;47.97
64853;BME280;56050;55.558;-4.644;2023-04-21T01:39:50;102570.53;;;8.73;47.84
64853;BME280;56050;55.558;-4.644;2023-04-21T01:42:19;102573.41;;;8.68;47.93
64853;BME280;56050;55.558;-4.644;2023-04-21T01:44:45;102566.22;;;8.60;48.08
64853;BME280;56050;55.558;-4.644;2023-04-21T01:47:11;102565.16;;;8.53;48.05
64853;BME280;56050;55.558;-4.644;2023-04-21T01:49:36;102568.50;;;8.50;48.27
64853;BME280;56050;55.558;-4.644;2023-04-21T01:52:02;102563.78;;;8.47;48.34
64853;BME280;56050;55.558;-4.644;2023-04-21T01:54:27;102560.50;;;8.41;48.29
64853;BME280;56050;55.558;-4.644;2023-04-21T01:56:53;102554.53;;;8.36;48.32
64853;BME280;56050;55.558;-4.644;2023-04-21T01:59:18;102552.03;;;8.31;48.47
64853;BME280;56050;55.558;-4.644;2023-04-21T02:01:44;102539.25;;;8.27;48.45
64853;BME280;56050;55.558;-4.644;2023-04-21T02:04:09;102529.59;;;8.26;48.31
64853;BME280;56050;55.558;-4.644;2023-04-21T02:06:35;102527.25;;;8.25;48.36
64853;BME280;56050;55.558;-4.644;2023-04-21T02:09:00;102523.78;;;8.24;48.41
64853;BME280;56050;55.558;-4.644;2023-04-21T02:11:26;102522.97;;;8.24;48.49
64853;BME280;56050;55.558;-4.644;2023-04-21T02:13:52;102524.88;;;8.23;48.36
64853;BME280;56050;55.558;-4.644;2023-04-21T02:16:18;102528.19;;;8.20;48.67
64853;BME280;56050;55.558;-4.644;2023-04-21T02:18:45;102522.38;;;8.18;48.59
64853;BME280;56050;55.558;-4.644;2023-04-21T02:21:10;102524.63;;;8.16;48.76
64853;BME280;56050;55.558;-4.644;2023-04-21T02:23:36;102521.47;;;8.14;48.85
64853;BME280;56050;55.558;-4.644;2023-04-21T02:26:01;102531.09;;;8.15;48.81
64853;BME280;56050;55.558;-4.644;2023-04-21T02:28:27;102529.53;;;8.14;48.83
64853;BME280;56050;55.558;-4.644;2023-04-21T02:30:52;102534.91;;;8.14;48.80
64853;BME280;56050;55.558;-4.644;2023-04-21T02:33:17;102532.53;;;8.13;48.96
64853;BME280;56050;55.558;-4.644;2023-04-21T02:35:42;102537.09;;;8.12;48.82
64853;BME280;56050;55.558;-4.644;2023-04-21T02:38:08;102539.00;;;8.12;48.96
64853;BME280;56050;55.558;-4.644;2023-04-21T02:40:34;102538.88;;;8.08;48.92
64853;BME280;56050;55.558;-4.644;2023-04-21T02:43:00;102533.03;;;8.06;49.14
64853;BME280;56050;55.558;-4.644;2023-04-21T02:45:27;102531.13;;;8.07;49.05
64853;BME280;56050;55.558;-4.644;2023-04-21T02:47:52;102523.06;;;8.07;49.16
64853;BME280;56050;55.558;-4.644;2023-04-21T02:50:17;102528.78;;;8.05;49.25
64853;BME280;56050;55.558;-4.644;2023-04-21T02:52:43;102520.88;;;8.09;49.24
64853;BME280;56050;55.558;-4.644;2023-04-21T02:55:08;102518.94;;;8.09;49.03
64853;BME280;56050;55.558;-4.644;2023-04-21T02:57:34;102517.84;;;8.10;49.01
64853;BME280;56050;55.558;-4.644;2023-04-21T02:59:59;102520.09;;;8.08;49.10
64853;BME280;56050;55.558;-4.644;2023-04-21T03:02:24;102511.69;;;8.10;49.16
64853;BME280;56050;55.558;-4.644;2023-04-21T03:04:50;102517.50;;;8.12;49.08
64853;BME280;56050;55.558;-4.644;2023-04-21T03:07:16;102501.41;;;8.12;48.99
64853;BME280;56050;55.558;-4.644;2023-04-21T03:09:41;102505.53;;;8.09;48.90
64853;BME280;56050;55.558;-4.644;2023-04-21T03:12:07;102506.97;;;8.07;49.15
64853;BME280;56050;55.558;-4.644;2023-04-21T03:14:32;102503.25;;;7.99;49.10
64853;BME280;56050;55.558;-4.644;2023-04-21T03:16:57;102504.06;;;7.91;49.04
64853;BME280;56050;55.558;-4.644;2023-04-21T03:19:23;102506.16;;;7.86;49.30
64853;BME280;56050;55.558;-4.644;2023-04-21T03:21:48;102502.06;;;7.80;49.53
64853;BME280;56050;55.558;-4.644;2023-04-21T03:24:14;102489.78;;;7.79;49.54
64853;BME280;56050;55.558;-4.644;2023-04-21T03:26:39;102492.00;;;7.77;49.53
64853;BME280;56050;55.558;-4.644;2023-04-21T03:29:05;102485.06;;;7.76;49.38
64853;BME280;56050;55.558;-4.644;2023-04-21T03:31:30;102481.13;;;7.73;49.32
64853;BME280;56050;55.558;-4.644;2023-04-21T03:33:56;102475.28;;;7.71;49.47
64853;BME280;56050;55.558;-4.644;2023-04-21T03:36:21;102478.75;;;7.72;49.52
64853;BME280;56050;55.558;-4.644;2023-04-21T03:38:47;102486.03;;;7.71;49.56
64853;BME280;56050;55.558;-4.644;2023-04-21T03:41:12;102475.28;;;7.71;49.64
64853;BME280;56050;55.558;-4.644;2023-04-21T03:43:37;102476.88;;;7.72;49.63
64853;BME280;56050;55.558;-4.644;2023-04-21T03:46:03;102474.19;;;7.72;49.62
64853;BME280;56050;55.558;-4.644;2023-04-21T03:48:28;102473.09;;;7.73;49.60
64853;BME280;56050;55.558;-4.644;2023-04-21T03:50:54;102466.59;;;7.74;49.91
64853;BME280;56050;55.558;-4.644;2023-04-21T03:53:19;102467.53;;;7.78;49.83
64853;BME280;56050;55.558;-4.644;2023-04-21T03:55:45;102470.03;;;7.83;50.17
64853;BME280;56050;55.558;-4.644;2023-04-21T03:58:14;102466.69;;;7.86;50.15
64853;BME280;56050;55.558;-4.644;2023-04-21T04:00:40;102462.59;;;7.89;50.11
64853;BME280;56050;55.558;-4.644;2023-04-21T04:03:05;102467.16;;;7.88;50.36
64853;BME280;56050;55.558;-4.644;2023-04-21T04:05:31;102470.94;;;7.87;50.19
64853;BME280;56050;55.558;-4.644;2023-04-21T04:07:57;102465.56;;;7.87;50.36
64853;BME280;56050;55.558;-4.644;2023-04-21T04:10:22;102461.78;;;7.88;50.49
64853;BME280;56050;55.558;-4.644;2023-04-21T04:12:48;102462.44;;;7.85;50.65
64853;BME280;56050;55.558;-4.644;2023-04-21T04:15:13;102456.63;;;7.83;50.96
64853;BME280;56050;55.558;-4.644;2023-04-21T04:17:39;102454.56;;;7.80;51.52
64853;BME280;56050;55.558;-4.644;2023-04-21T04:20:05;102455.38;;;7.81;52.10
64853;BME280;56050;55.558;-4.644;2023-04-21T04:22:31;102455.03;;;7.82;52.37
64853;BME280;56050;55.558;-4.644;2023-04-21T04:24:58;102456.91;;;7.82;52.76
64853;BME280;56050;55.558;-4.644;2023-04-21T04:27:23;102456.91;;;7.82;53.50
64853;BME280;56050;55.558;-4.644;2023-04-21T04:29:50;102449.66;;;7.82;53.93
64853;BME280;56050;55.558;-4.644;2023-04-21T04:32:17;102449.34;;;7.84;54.49
64853;BME280;56050;55.558;-4.644;2023-04-21T04:34:43;102446.78;;;7.87;54.82
64853;BME280;56050;55.558;-4.644;2023-04-21T04:37:08;102445.84;;;7.92;55.01
64853;BME280;56050;55.558;-4.644;2023-04-21T04:39:35;102449.75;;;7.94;55.52
64853;BME280;56050;55.558;-4.644;2023-04-21T04:42:01;102441.84;;;7.98;55.75
64853;BME280;56050;55.558;-4.644;2023-04-21T04:44:28;102435.50;;;8.02;56.06
64853;BME280;56050;55.558;-4.644;2023-04-21T04:46:54;102429.47;;;8.05;56.60
64853;BME280;56050;55.558;-4.644;2023-04-21T04:49:20;102434.19;;;8.08;56.84
64853;BME280;56050;55.558;-4.644;2023-04-21T04:51:46;102437.34;;;8.10;57.44
64853;BME280;56050;55.558;-4.644;2023-04-21T04:54:11;102439.38;;;8.13;57.68
64853;BME280;56050;55.558;-4.644;2023-04-21T04:56:37;102446.44;;;8.18;57.60
64853;BME280;56050;55.558;-4.644;2023-04-21T04:59:02;102447.66;;;8.20;57.72
64853;BME280;56050;55.558;-4.644;2023-04-21T05:01:27;102447.66;;;8.20;57.96
64853;BME280;56050;55.558;-4.644;2023-04-21T05:03:55;102449.69;;;8.23;58.20
64853;BME280;56050;55.558;-4.644;2023-04-21T05:06:21;102444.34;;;8.23;58.32
64853;BME280;56050;55.558;-4.644;2023-04-21T05:08:46;102446.72;;;8.25;58.30
64853;BME280;56050;55.558;-4.644;2023-04-21T05:11:12;102454.91;;;8.28;58.52
64853;BME280;56050;55.558;-4.644;2023-04-21T05:13:37;102447.78;;;8.33;58.32
64853;BME280;56050;55.558;-4.644;2023-04-21T05:16:03;102449.81;;;8.36;58.35
64853;BME280;56050;55.558;-4.644;2023-04-21T05:18:28;102441.88;;;8.39;58.11
64853;BME280;56050;55.558;-4.644;2023-04-21T05:20:54;102437.28;;;8.40;58.08
64853;BME280;56050;55.558;-4.644;2023-04-21T05:23:19;102430.81;;;8.41;58.11
64853;BME280;56050;55.558;-4.644;2023-04-21T05:25:45;102433.50;;;8.41;58.29
64853;BME280;56050;55.558;-4.644;2023-04-21T05:28:10;102423.84;;;8.40;58.50
64853;BME280;56050;55.558;-4.644;2023-04-21T05:30:36;102428.56;;;8.43;58.64
64853;BME280;56050;55.558;-4.644;2023-04-21T05:33:01;102431.72;;;8.45;58.52
64853;BME280;56050;55.558;-4.644;2023-04-21T05:35:29;102439.44;;;8.46;58.90
64853;BME280;56050;55.558;-4.644;2023-04-21T05:37:54;102436.44;;;8.48;59.09
64853;BME280;56050;55.558;-4.644;2023-04-21T05:40:20;102436.88;;;8.50;59.13
64853;BME280;56050;55.558;-4.644;2023-04-21T05:42:45;102433.06;;;8.51;59.28
64853;BME280;56050;55.558;-4.644;2023-04-21T05:45:11;102427.38;;;8.52;59.23
64853;BME280;56050;55.558;-4.644;2023-04-21T05:47:36;102433.22;;;8.54;59.46
64853;BME280;56050;55.558;-4.644;2023-04-21T05:50:03;102427.53;;;8.56;59.49
64853;BME280;56050;55.558;-4.644;2023-04-21T05:52:29;102427.19;;;8.57;59.39
64853;BME280;56050;55.558;-4.644;2023-04-21T05:54:54;102426.06;;;8.58;59.33
64853;BME280;56050;55.558;-4.644;2023-04-21T05:57:19;102429.66;;;8.62;59.21
64853;BME280;56050;55.558;-4.644;2023-04-21T05:59:45;102420.16;;;8.65;59.23
64853;BME280;56050;55.558;-4.644;2023-04-21T06:02:11;102428.00;;;8.70;58.93
64853;BME280;56050;55.558;-4.644;2023-04-21T06:04:36;102423.88;;;8.72;59.09
64853;BME280;56050;55.558;-4.644;2023-04-21T06:07:06;102423.97;;;8.76;58.96
64853;BME280;56050;55.558;-4.644;2023-04-21T06:09:32;102423.44;;;8.82;58.99
64853;BME280;56050;55.558;-4.644;2023-04-21T06:11:57;102424.03;;;8.88;58.95
64853;BME280;56050;55.558;-4.644;2023-04-21T06:14:23;102417.31;;;8.94;58.76
64853;BME280;56050;55.558;-4.644;2023-04-21T06:16:48;102411.38;;;9.01;58.71
64853;BME280;56050;55.558;-4.644;2023-04-21T06:19:14;102407.03;;;9.08;58.87
64853;BME280;56050;55.558;-4.644;2023-04-21T06:21:39;102411.97;;;9.18;58.90
64853;BME280;56050;55.558;-4.644;2023-04-21T06:24:05;102400.44;;;9.30;58.69
64853;BME280;56050;55.558;-4.644;2023-04-21T06:26:30;102398.88;;;9.41;58.91
64853;BME280;56050;55.558;-4.644;2023-04-21T06:28:56;102407.72;;;9.54;58.63
64853;BME280;56050;55.558;-4.644;2023-04-21T06:31:21;102409.75;;;9.69;58.49
64853;BME280;56050;55.558;-4.644;2023-04-21T06:33:46;102404.06;;;9.86;58.47
64853;BME280;56050;55.558;-4.644;2023-04-21T06:36:12;102402.94;;;9.99;58.35
64853;BME280;56050;55.558;-4.644;2023-04-21T06:38:37;102406.06;;;10.13;58.38
64853;BME280;56050;55.558;-4.644;2023-04-21T06:41:05;102403.31;;;10.25;58.20
64853;BME280;56050;55.558;-4.644;2023-04-21T06:43:31;102402.59;;;10.40;58.08
64853;BME280;56050;55.558;-4.644;2023-04-21T06:45:57;102406.81;;;10.53;57.77
64853;BME280;56050;55.558;-4.644;2023-04-21T06:48:22;102394.13;;;10.70;57.73
64853;BME280;56050;55.558;-4.644;2023-04-21T06:50:48;102396.41;;;10.83;57.71
64853;BME280;56050;55.558;-4.644;2023-04-21T06:53:14;102383.28;;;10.97;57.38
64853;BME280;56050;55.558;-4.644;2023-04-21T06:55:40;102384.44;;;11.12;57.25
64853;BME280;56050;55.558;-4.644;2023-04-21T06:58:06;102372.78;;;11.24;57.21
64853;BME280;56050;55.558;-4.644;2023-04-21T07:00:31;102377.63;;;11.34;56.92
64853;BME280;56050;55.558;-4.644;2023-04-21T07:02:57;102373.63;;;11.43;56.78
64853;BME280;56050;55.558;-4.644;2023-04-21T07:05:22;102368.09;;;11.55;56.57
64853;BME280;56050;55.558;-4.644;2023-04-21T07:07:48;102362.13;;;11.65;56.37
64853;BME280;56050;55.558;-4.644;2023-04-21T07:10:13;102363.63;;;11.78;56.35
64853;BME280;56050;55.558;-4.644;2023-04-21T07:12:46;102360.44;;;11.92;56.11
64853;BME280;56050;55.558;-4.644;2023-04-21T07:15:11;102357.94;;;12.03;55.96
64853;BME280;56050;55.558;-4.644;2023-04-21T07:17:37;102351.16;;;12.12;55.81
64853;BME280;56050;55.558;-4.644;2023-04-21T07:20:03;102346.69;;;12.20;55.71
64853;BME280;56050;55.558;-4.644;2023-04-21T07:22:28;102356.44;;;12.24;55.38
64853;BME280;56050;55.558;-4.644;2023-04-21T07:24:53;102344.50;;;12.25;55.33
64853;BME280;56050;55.558;-4.644;2023-04-21T07:27:19;102351.53;;;12.30;55.28
64853;BME280;56050;55.558;-4.644;2023-04-21T07:29:44;102343.13;;;12.35;55.04
64853;BME280;56050;55.558;-4.644;2023-04-21T07:32:10;102349.00;;;12.41;54.96
64853;BME280;56050;55.558;-4.644;2023-04-21T07:34:35;102341.84;;;12.48;54.80
64853;BME280;56050;55.558;-4.644;2023-04-21T07:37:01;102340.81;;;12.56;54.12
64853;BME280;56050;55.558;-4.644;2023-04-21T07:39:26;102341.63;;;12.60;54.57
64853;BME280;56050;55.558;-4.644;2023-04-21T07:41:51;102332.09;;;12.66;54.22
64853;BME280;56050;55.558;-4.644;2023-04-21T07:44:18;102324.88;;;12.74;54.12
64853;BME280;56050;55.558;-4.644;2023-04-21T07:46:43;102332.69;;;12.79;53.92
64853;BME280;56050;55.558;-4.644;2023-04-21T07:49:09;102325.41;;;12.83;53.75
64853;BME280;56050;55.558;-4.644;2023-04-21T07:51:34;102315.78;;;12.85;53.53
64853;BME280;56050;55.558;-4.644;2023-04-21T07:54:00;102326.72;;;12.92;53.37
64853;BME280;56050;55.558;-4.644;2023-04-21T07:56:25;102321.50;;;13.03;53.22
64853;BME280;56050;55.558;-4.644;2023-04-21T07:58:51;102320.09;;;13.13;53.03
64853;BME280;56050;55.558;-4.644;2023-04-21T08:01:16;102309.75;;;13.18;52.64
64853;BME280;56050;55.558;-4.644;2023-04-21T08:03:42;102307.44;;;13.20;52.47
64853;BME280;56050;55.558;-4.644;2023-04-21T08:06:07;102316.00;;;13.22;52.33
64853;BME280;56050;55.558;-4.644;2023-04-21T08:08:33;102317.19;;;13.25;52.30
64853;BME280;56050;55.558;-4.644;2023-04-21T08:10:58;102309.50;;;13.27;51.88
64853;BME280;56050;55.558;-4.644;2023-04-21T08:13:24;102316.09;;;13.29;51.95
64853;BME280;56050;55.558;-4.644;2023-04-21T08:15:53;102302.25;;;13.34;51.90
64853;BME280;56050;55.558;-4.644;2023-04-21T08:18:19;102312.44;;;13.44;51.88
64853;BME280;56050;55.558;-4.644;2023-04-21T08:20:45;102301.69;;;13.51;51.94
64853;BME280;56050;55.558;-4.644;2023-04-21T08:23:12;102297.59;;;13.61;51.67
64853;BME280;56050;55.558;-4.644;2023-04-21T08:25:38;102299.59;;;13.68;51.23
64853;BME280;56050;55.558;-4.644;2023-04-21T08:28:03;102304.25;;;13.71;51.06
64853;BME280;56050;55.558;-4.644;2023-04-21T08:30:29;102306.97;;;13.71;50.75
64853;BME280;56050;55.558;-4.644;2023-04-21T08:32:55;102303.47;;;13.70;50.63
64853;BME280;56050;55.558;-4.644;2023-04-21T08:35:20;102283.78;;;13.73;50.40
64853;BME280;56050;55.558;-4.644;2023-04-21T08:37:45;102279.22;;;13.77;50.29
64853;BME280;56050;55.558;-4.644;2023-04-21T08:40:11;102271.47;;;13.79;50.05
64853;BME280;56050;55.558;-4.644;2023-04-21T08:42:37;102284.66;;;13.81;49.94
64853;BME280;56050;55.558;-4.644;2023-04-21T08:45:03;102274.25;;;13.83;49.73
64853;BME280;56050;55.558;-4.644;2023-04-21T08:47:31;102276.22;;;13.86;49.56
64853;BME280;56050;55.558;-4.644;2023-04-21T08:49:57;102270.00;;;13.85;49.51
64853;BME280;56050;55.558;-4.644;2023-04-21T08:52:23;102265.72;;;13.84;49.38
64853;BME280;56050;55.558;-4.644;2023-04-21T08:54:48;102262.69;;;13.89;49.28
64853;BME280;56050;55.558;-4.644;2023-04-21T08:57:17;102265.09;;;13.94;48.85
64853;BME280;56050;55.558;-4.644;2023-04-21T08:59:44;102262.38;;;13.98;48.67
64853;BME280;56050;55.558;-4.644;2023-04-21T09:02:11;102245.03;;;14.02;48.48
64853;BME280;56050;55.558;-4.644;2023-04-21T09:04:45;102246.22;;;14.05;48.37
64853;BME280;56050;55.558;-4.644;2023-04-21T09:07:11;102237.75;;;14.10;48.15
64853;BME280;56050;55.558;-4.644;2023-04-21T09:09:53;102240.91;;;14.16;47.97
64853;BME280;56050;55.558;-4.644;2023-04-21T09:12:19;102240.56;;;14.21;47.51
64853;BME280;56050;55.558;-4.644;2023-04-21T09:14:45;102237.13;;;14.27;47.81
64853;BME280;56050;55.558;-4.644;2023-04-21T09:17:11;102234.50;;;14.34;47.69
64853;BME280;56050;55.558;-4.644;2023-04-21T09:19:36;102236.91;;;14.43;47.58
64853;BME280;56050;55.558;-4.644;2023-04-21T09:22:02;102231.50;;;14.46;47.26
64853;BME280;56050;55.558;-4.644;2023-04-21T09:24:29;102232.34;;;14.54;46.83
64853;BME280;56050;55.558;-4.644;2023-04-21T09:26:55;102231.59;;;14.57;46.76
64853;BME280;56050;55.558;-4.644;2023-04-21T09:29:24;102237.81;;;14.61;46.92
64853;BME280;56050;55.558;-4.644;2023-04-21T09:31:50;102227.75;;;14.61;46.43
64853;BME280;56050;55.558;-4.644;2023-04-21T09:34:21;102227.00;;;14.64;46.59
64853;BME280;56050;55.558;-4.644;2023-04-21T09:36:58;102230.91;;;14.70;46.75
64853;BME280;56050;55.558;-4.644;2023-04-21T09:39:23;102231.38;;;14.80;46.54
64853;BME280;56050;55.558;-4.644;2023-04-21T09:41:49;102215.13;;;14.87;46.17
64853;BME280;56050;55.558;-4.644;2023-04-21T09:44:14;102217.88;;;14.90;45.71
64853;BME280;56050;55.558;-4.644;2023-04-21T09:46:42;102212.84;;;14.92;45.25
64853;BME280;56050;55.558;-4.644;2023-04-21T09:49:08;102210.53;;;14.98;45.20
64853;BME280;56050;55.558;-4.644;2023-04-21T09:51:37;102217.53;;;15.02;44.86
64853;BME280;56050;55.558;-4.644;2023-04-21T09:54:17;102199.34;;;15.06;44.96
64853;BME280;56050;55.558;-4.644;2023-04-21T09:56:42;102192.75;;;15.11;44.69
64853;BME280;56050;55.558;-4.644;2023-04-21T09:59:13;102200.16;;;15.17;44.62
64853;BME280;56050;55.558;-4.644;2023-04-21T10:01:42;102193.22;;;15.23;44.82
64853;BME280;56050;55.558;-4.644;2023-04-21T10:04:08;102177.72;;;15.31;44.40
64853;BME280;56050;55.558;-4.644;2023-04-21T10:06:34;102182.03;;;15.39;44.43
64853;BME280;56050;55.558;-4.644;2023-04-21T10:09:03;102177.78;;;15.45;44.36
64853;BME280;56050;55.558;-4.644;2023-04-21T10:11:30;102176.66;;;15.53;44.08
64853;BME280;56050;55.558;-4.644;2023-04-21T10:13:58;102170.84;;;15.58;43.35
64853;BME280;56050;55.558;-4.644;2023-04-21T10:16:24;102166.22;;;15.62;43.57
64853;BME280;56050;55.558;-4.644;2023-04-21T10:18:50;102151.47;;;15.67;43.43
64853;BME280;56050;55.558;-4.644;2023-04-21T10:21:18;102154.97;;;15.74;43.55
64853;BME280;56050;55.558;-4.644;2023-04-21T10:23:47;102148.38;;;15.82;43.35
64853;BME280;56050;55.558;-4.644;2023-04-21T10:26:19;102141.41;;;15.88;43.45
64853;BME280;56050;55.558;-4.644;2023-04-21T10:28:46;102140.63;;;15.99;43.19
64853;BME280;56050;55.558;-4.644;2023-04-21T10:39:33;102122.72;;;16.40;42.55
64853;BME280;56050;55.558;-4.644;2023-04-21T10:42:21;102119.22;;;16.46;42.35
64853;BME280;56050;55.558;-4.644;2023-04-21T10:47:40;102117.28;;;16.54;41.36
64853;BME280;56050;55.558;-4.644;2023-04-21T10:50:24;102101.72;;;16.58;41.21
64853;BME280;56050;55.558;-4.644;2023-04-21T10:55:25;102092.75;;;16.72;41.07
64853;BME280;56050;55.558;-4.644;2023-04-21T10:57:51;102093.88;;;16.81;41.06
64853;BME280;56050;55.558;-4.644;2023-04-21T11:00:19;102101.63;;;16.86;40.84
64853;BME280;56050;55.558;-4.644;2023-04-21T11:02:59;102091.91;;;16.89;40.46
64853;BME280;56050;55.558;-4.644;2023-04-21T11:05:33;102096.16;;;16.93;40.35
64853;BME280;56050;55.558;-4.644;2023-04-21T11:08:14;102092.63;;;16.96;40.13
64853;BME280;56050;55.558;-4.644;2023-04-21T11:10:51;102089.50;;;17.01;40.21
64853;BME280;56050;55.558;-4.644;2023-04-21T11:13:20;102088.69;;;17.04;39.65
64853;BME280;56050;55.558;-4.644;2023-04-21T11:16:06;102083.63;;;17.10;39.92
64853;BME280;56050;55.558;-4.644;2023-04-21T11:18:43;102088.63;;;17.19;39.83
64853;BME280;56050;55.558;-4.644;2023-04-21T11:21:17;102069.91;;;17.28;40.07
64853;BME280;56050;55.558;-4.644;2023-04-21T11:23:55;102060.94;;;17.31;39.51
64853;BME280;56050;55.558;-4.644;2023-04-21T11:26:36;102061.69;;;17.35;39.77
64853;BME280;56050;55.558;-4.644;2023-04-21T11:29:07;102062.81;;;17.41;39.68
64853;BME280;56050;55.558;-4.644;2023-04-21T11:31:34;102061.22;;;17.43;39.44
64853;BME280;56050;55.558;-4.644;2023-04-21T11:34:01;102063.94;;;17.43;39.28
64853;BME280;56050;55.558;-4.644;2023-04-21T11:36:43;102041.00;;;17.41;38.90
64853;BME280;56050;55.558;-4.644;2023-04-21T11:39:13;102041.00;;;17.41;39.30
64853;BME280;56050;55.558;-4.644;2023-04-21T11:41:42;102036.72;;;17.43;39.28
64853;BME280;56050;55.558;-4.644;2023-04-21T11:44:12;102030.47;;;17.46;39.42
64853;BME280;56050;55.558;-4.644;2023-04-21T11:46:44;102038.25;;;17.48;39.21
64853;BME280;56050;55.558;-4.644;2023-04-21T11:49:14;102021.47;;;17.49;39.10
64853;BME280;56050;55.558;-4.644;2023-04-21T11:51:42;102005.94;;;17.46;38.48
64853;BME280;56050;55.558;-4.644;2023-04-21T11:54:12;102020.34;;;17.47;39.16
64853;BME280;56050;55.558;-4.644;2023-04-21T11:56:42;102011.00;;;17.48;38.94
64853;BME280;56050;55.558;-4.644;2023-04-21T11:59:12;102017.56;;;17.54;39.10
64853;BME280;56050;55.558;-4.644;2023-04-21T12:01:45;102009.38;;;17.57;39.10
64853;BME280;56050;55.558;-4.644;2023-04-21T12:06:55;101995.66;;;17.68;39.00
64853;BME280;56050;55.558;-4.644;2023-04-21T12:09:21;101994.41;;;17.76;39.47
64853;BME280;56050;55.558;-4.644;2023-04-21T12:11:48;101970.25;;;17.78;38.97
64853;BME280;56050;55.558;-4.644;2023-04-21T12:14:15;101981.09;;;17.82;39.13
64853;BME280;56050;55.558;-4.644;2023-04-21T12:16:41;101978.78;;;17.84;39.24
64853;BME280;56050;55.558;-4.644;2023-04-21T12:19:06;101984.56;;;17.89;39.13
64853;BME280;56050;55.558;-4.644;2023-04-21T12:21:32;101980.25;;;17.92;38.89
64853;BME280;56050;55.558;-4.644;2023-04-21T12:23:57;101951.00;;;17.92;38.81
64853;BME280;56050;55.558;-4.644;2023-04-21T12:26:23;101972.78;;;17.96;38.82
64853;BME280;56050;55.558;-4.644;2023-04-21T12:28:51;101955.63;;;17.99;38.93
64853;BME280;56050;55.558;-4.644;2023-04-21T12:31:17;101951.28;;;18.05;39.12
64853;BME280;56050;55.558;-4.644;2023-04-21T12:33:43;101969.91;;;18.10;38.83
64853;BME280;56050;55.558;-4.644;2023-04-21T12:36:08;101953.91;;;18.12;38.61
64853;BME280;56050;55.558;-4.644;2023-04-21T12:38:34;101938.75;;;18.11;38.27
64853;BME280;56050;55.558;-4.644;2023-04-21T12:40:59;101935.25;;;18.07;38.03
64853;BME280;56050;55.558;-4.644;2023-04-21T12:43:25;101942.66;;;18.06;38.14
64853;BME280;56050;55.558;-4.644;2023-04-21T12:45:50;101943.44;;;18.07;38.21
64853;BME280;56050;55.558;-4.644;2023-04-21T12:48:17;101942.72;;;18.03;37.84
64853;BME280;56050;55.558;-4.644;2023-04-21T12:50:44;101924.44;;;18.00;37.88
64853;BME280;56050;55.558;-4.644;2023-04-21T12:53:10;101936.94;;;17.97;37.74
64853;BME280;56050;55.558;-4.644;2023-04-21T12:55:36;101935.81;;;17.95;37.72
64853;BME280;56050;55.558;-4.644;2023-04-21T12:58:01;101916.31;;;17.96;37.70
64853;BME280;56050;55.558;-4.644;2023-04-21T13:00:27;101915.50;;;17.99;37.70